Sutherland Springs, Texas
Current Conditions -  °F | °C
As of 9:58 PM on Tuesday 27 Jan 2015 (Local Time) from KRND Reporting Station
Clear Clear  
Wind Chill: 12°   Ceiling: Unl
Heat Index: 12°   Visibility: 10mi
Dew Point:   Wind: 3mph
Humidity: 64%   Direction: 350°N
Pressure: 30.14"   Gusts: NA
Location:  29.27°N, 98.06°W
Report Text: KRND 280358Z AUTO 35003KT 10SM CLR 12/05 A3014 RMK AO2 SLPNO T01190052
Loading
Personal Weather Stations






























Interactive Weather Map New forecast layout! Learn more

10-Day Weather Forecast

Advertisements
Track Severe Weather on mobile